sensor_id;sensor_type;location;lat;lon;timestamp;temperature;humidity
9095;DHT22;4583;49.796;9.902;2023-07-13T00:03:51;23.30;57.30
9095;DHT22;4583;49.796;9.902;2023-07-13T00:13:53;23.00;58.20
9095;DHT22;4583;49.796;9.902;2023-07-13T00:23:55;22.80;58.80
9095;DHT22;4583;49.796;9.902;2023-07-13T00:33:56;22.60;59.10
9095;DHT22;4583;49.796;9.902;2023-07-13T00:43:58;22.40;59.60
9095;DHT22;4583;49.796;9.902;2023-07-13T00:54:04;22.30;59.60
9095;DHT22;4583;49.796;9.902;2023-07-13T01:04:08;22.30;59.90
9095;DHT22;4583;49.796;9.902;2023-07-13T01:14:10;22.10;60.00
9095;DHT22;4583;49.796;9.902;2023-07-13T01:24:11;21.90;60.20
9095;DHT22;4583;49.796;9.902;2023-07-13T01:34:13;21.80;60.40
9095;DHT22;4583;49.796;9.902;2023-07-13T01:44:15;21.70;60.40
9095;DHT22;4583;49.796;9.902;2023-07-13T01:54:17;21.70;60.40
9095;DHT22;4583;49.796;9.902;2023-07-13T02:04:18;21.50;60.30
9095;DHT22;4583;49.796;9.902;2023-07-13T02:14:20;21.40;60.30
9095;DHT22;4583;49.796;9.902;2023-07-13T02:24:22;21.30;60.30
9095;DHT22;4583;49.796;9.902;2023-07-13T02:34:23;21.10;60.60
9095;DHT22;4583;49.796;9.902;2023-07-13T02:44:25;20.90;60.80
9095;DHT22;4583;49.796;9.902;2023-07-13T02:54:27;20.80;61.00
9095;DHT22;4583;49.796;9.902;2023-07-13T03:04:29;20.40;60.80
9095;DHT22;4583;49.796;9.902;2023-07-13T03:14:31;20.40;61.60
9095;DHT22;4583;49.796;9.902;2023-07-13T03:24:34;20.40;61.80
9095;DHT22;4583;49.796;9.902;2023-07-13T03:34:39;20.50;61.60
9095;DHT22;4583;49.796;9.902;2023-07-13T03:44:42;20.70;61.30
9095;DHT22;4583;49.796;9.902;2023-07-13T03:54:47;20.20;62.60
9095;DHT22;4583;49.796;9.902;2023-07-13T04:04:49;20.20;62.20
9095;DHT22;4583;49.796;9.902;2023-07-13T04:14:51;19.90;61.60
9095;DHT22;4583;49.796;9.902;2023-07-13T04:24:52;20.00;62.30
9095;DHT22;4583;49.796;9.902;2023-07-13T04:34:54;20.00;62.20
9095;DHT22;4583;49.796;9.902;2023-07-13T04:44:57;20.10;61.80
9095;DHT22;4583;49.796;9.902;2023-07-13T04:54:59;20.10;62.70
9095;DHT22;4583;49.796;9.902;2023-07-13T05:05:01;20.20;62.60
9095;DHT22;4583;49.796;9.902;2023-07-13T05:15:06;20.40;62.50
9095;DHT22;4583;49.796;9.902;2023-07-13T05:25:08;20.20;62.30
9095;DHT22;4583;49.796;9.902;2023-07-13T05:35:10;20.00;63.00
9095;DHT22;4583;49.796;9.902;2023-07-13T05:45:12;20.00;63.50
9095;DHT22;4583;49.796;9.902;2023-07-13T05:55:14;20.20;63.10
9095;DHT22;4583;49.796;9.902;2023-07-13T06:05:15;20.20;63.00
9095;DHT22;4583;49.796;9.902;2023-07-13T06:15:18;20.70;62.70
9095;DHT22;4583;49.796;9.902;2023-07-13T06:25:20;21.00;61.70
9095;DHT22;4583;49.796;9.902;2023-07-13T06:35:21;21.30;60.80
9095;DHT22;4583;49.796;9.902;2023-07-13T06:45:23;21.60;59.70
9095;DHT22;4583;49.796;9.902;2023-07-13T06:55:26;21.80;58.90
9095;DHT22;4583;49.796;9.902;2023-07-13T07:05:27;22.00;57.90
9095;DHT22;4583;49.796;9.902;2023-07-13T07:15:29;22.00;56.00
9095;DHT22;4583;49.796;9.902;2023-07-13T07:25:31;22.10;55.80
9095;DHT22;4583;49.796;9.902;2023-07-13T07:35:34;22.40;55.30
9095;DHT22;4583;49.796;9.902;2023-07-13T07:45:44;22.50;54.90
9095;DHT22;4583;49.796;9.902;2023-07-13T07:55:46;22.80;54.10
9095;DHT22;4583;49.796;9.902;2023-07-13T08:05:55;22.80;54.20
9095;DHT22;4583;49.796;9.902;2023-07-13T08:16:00;23.00;53.20
9095;DHT22;4583;49.796;9.902;2023-07-13T08:26:02;23.10;52.20
9095;DHT22;4583;49.796;9.902;2023-07-13T08:36:05;23.40;51.40
9095;DHT22;4583;49.796;9.902;2023-07-13T08:46:18;23.40;50.60
9095;DHT22;4583;49.796;9.902;2023-07-13T08:56:26;23.50;49.60
9095;DHT22;4583;49.796;9.902;2023-07-13T09:06:39;23.50;50.40
9095;DHT22;4583;49.796;9.902;2023-07-13T09:16:43;23.50;50.60
9095;DHT22;4583;49.796;9.902;2023-07-13T09:26:45;23.60;50.70
9095;DHT22;4583;49.796;9.902;2023-07-13T09:36:47;24.00;50.40
9095;DHT22;4583;49.796;9.902;2023-07-13T09:46:53;24.00;49.70
9095;DHT22;4583;49.796;9.902;2023-07-13T09:56:57;24.40;48.30
9095;DHT22;4583;49.796;9.902;2023-07-13T10:07:11;24.40;48.20
9095;DHT22;4583;49.796;9.902;2023-07-13T10:17:32;24.20;48.90
9095;DHT22;4583;49.796;9.902;2023-07-13T10:27:35;24.40;49.00
9095;DHT22;4583;49.796;9.902;2023-07-13T10:38:15;24.70;49.60
9095;DHT22;4583;49.796;9.902;2023-07-13T10:48:19;24.80;49.10
9095;DHT22;4583;49.796;9.902;2023-07-13T10:58:28;25.00;48.20
9095;DHT22;4583;49.796;9.902;2023-07-13T11:08:56;24.90;47.70
9095;DHT22;4583;49.796;9.902;2023-07-13T11:29:32;25.10;46.70
9095;DHT22;4583;49.796;9.902;2023-07-13T11:39:37;25.10;46.70
9095;DHT22;4583;49.796;9.902;2023-07-13T11:49:54;25.40;46.40
9095;DHT22;4583;49.796;9.902;2023-07-13T12:00:02;25.30;46.70
9095;DHT22;4583;49.796;9.902;2023-07-13T12:10:18;25.50;46.90
9095;DHT22;4583;49.796;9.902;2023-07-13T12:20:29;25.50;47.00
9095;DHT22;4583;49.796;9.902;2023-07-13T12:30:34;25.30;46.70
9095;DHT22;4583;49.796;9.902;2023-07-13T12:40:38;25.50;46.90
9095;DHT22;4583;49.796;9.902;2023-07-13T12:50:47;25.80;45.40
9095;DHT22;4583;49.796;9.902;2023-07-13T13:00:51;25.90;45.30
9095;DHT22;4583;49.796;9.902;2023-07-13T13:10:55;26.10;45.30
9095;DHT22;4583;49.796;9.902;2023-07-13T13:20:56;26.10;45.80
9095;DHT22;4583;49.796;9.902;2023-07-13T13:30:58;25.90;45.60
9095;DHT22;4583;49.796;9.902;2023-07-13T13:41:02;25.70;46.20
9095;DHT22;4583;49.796;9.902;2023-07-13T13:51:17;25.80;46.10
9095;DHT22;4583;49.796;9.902;2023-07-13T14:01:21;26.10;45.80
9095;DHT22;4583;49.796;9.902;2023-07-13T14:11:24;26.10;45.80
9095;DHT22;4583;49.796;9.902;2023-07-13T14:21:29;26.10;45.30
9095;DHT22;4583;49.796;9.902;2023-07-13T14:31:31;26.10;44.80
9095;DHT22;4583;49.796;9.902;2023-07-13T14:41:33;26.30;44.50
9095;DHT22;4583;49.796;9.902;2023-07-13T14:51:34;26.70;44.40
9095;DHT22;4583;49.796;9.902;2023-07-13T15:01:37;26.40;43.90
9095;DHT22;4583;49.796;9.902;2023-07-13T15:11:40;27.40;42.80
9095;DHT22;4583;49.796;9.902;2023-07-13T15:21:43;27.00;42.60
9095;DHT22;4583;49.796;9.902;2023-07-13T15:31:45;26.50;42.80
9095;DHT22;4583;49.796;9.902;2023-07-13T15:41:47;26.90;42.70
9095;DHT22;4583;49.796;9.902;2023-07-13T15:51:52;27.00;42.40
9095;DHT22;4583;49.796;9.902;2023-07-13T16:01:54;26.70;42.70
9095;DHT22;4583;49.796;9.902;2023-07-13T16:11:56;27.80;41.60
9095;DHT22;4583;49.796;9.902;2023-07-13T16:21:59;31.90;38.00
9095;DHT22;4583;49.796;9.902;2023-07-13T16:32:13;31.80;37.50
9095;DHT22;4583;49.796;9.902;2023-07-13T16:42:15;30.50;38.10
9095;DHT22;4583;49.796;9.902;2023-07-13T16:52:18;29.20;39.30
9095;DHT22;4583;49.796;9.902;2023-07-13T17:02:31;27.90;40.50
9095;DHT22;4583;49.796;9.902;2023-07-13T17:12:34;29.40;39.10
9095;DHT22;4583;49.796;9.902;2023-07-13T17:22:36;29.70;39.00
9095;DHT22;4583;49.796;9.902;2023-07-13T17:32:38;32.80;35.60
9095;DHT22;4583;49.796;9.902;2023-07-13T17:42:41;33.30;34.20
9095;DHT22;4583;49.796;9.902;2023-07-13T17:52:43;37.00;30.30
9095;DHT22;4583;49.796;9.902;2023-07-13T18:02:45;36.00;29.70
9095;DHT22;4583;49.796;9.902;2023-07-13T18:12:47;31.40;33.70
9095;DHT22;4583;49.796;9.902;2023-07-13T18:22:52;28.80;36.80
9095;DHT22;4583;49.796;9.902;2023-07-13T18:32:55;27.20;39.40
9095;DHT22;4583;49.796;9.902;2023-07-13T18:42:58;26.10;41.40
9095;DHT22;4583;49.796;9.902;2023-07-13T18:53:00;25.50;42.70
9095;DHT22;4583;49.796;9.902;2023-07-13T19:03:03;25.20;43.40
9095;DHT22;4583;49.796;9.902;2023-07-13T19:13:05;25.00;44.30
9095;DHT22;4583;49.796;9.902;2023-07-13T19:23:35;24.70;45.00
9095;DHT22;4583;49.796;9.902;2023-07-13T19:33:37;24.40;45.50
9095;DHT22;4583;49.796;9.902;2023-07-13T19:43:39;24.10;46.00
9095;DHT22;4583;49.796;9.902;2023-07-13T19:53:41;23.80;46.70
9095;DHT22;4583;49.796;9.902;2023-07-13T20:03:43;23.50;47.30
9095;DHT22;4583;49.796;9.902;2023-07-13T20:13:45;23.20;48.90
9095;DHT22;4583;49.796;9.902;2023-07-13T20:23:47;23.00;49.60
9095;DHT22;4583;49.796;9.902;2023-07-13T20:33:48;22.80;50.10
9095;DHT22;4583;49.796;9.902;2023-07-13T20:43:50;22.60;50.40
9095;DHT22;4583;49.796;9.902;2023-07-13T20:53:53;22.40;50.80
9095;DHT22;4583;49.796;9.902;2023-07-13T21:04:02;22.20;51.60
9095;DHT22;4583;49.796;9.902;2023-07-13T21:14:04;22.00;52.10
9095;DHT22;4583;49.796;9.902;2023-07-13T21:24:09;21.80;52.70
9095;DHT22;4583;49.796;9.902;2023-07-13T21:34:18;21.60;53.60
9095;DHT22;4583;49.796;9.902;2023-07-13T21:44:26;21.40;54.40
9095;DHT22;4583;49.796;9.902;2023-07-13T21:54:28;21.20;55.60
9095;DHT22;4583;49.796;9.902;2023-07-13T22:04:30;21.00;56.60
9095;DHT22;4583;49.796;9.902;2023-07-13T22:14:32;20.80;57.10
9095;DHT22;4583;49.796;9.902;2023-07-13T22:24:34;20.60;57.70
9095;DHT22;4583;49.796;9.902;2023-07-13T22:34:36;20.30;57.80
9095;DHT22;4583;49.796;9.902;2023-07-13T22:44:37;20.00;58.80
9095;DHT22;4583;49.796;9.902;2023-07-13T22:54:39;20.00;59.60
9095;DHT22;4583;49.796;9.902;2023-07-13T23:04:44;20.00;60.30
9095;DHT22;4583;49.796;9.902;2023-07-13T23:14:50;19.50;61.00
9095;DHT22;4583;49.796;9.902;2023-07-13T23:24:52;19.60;61.80
9095;DHT22;4583;49.796;9.902;2023-07-13T23:34:54;19.50;62.10
9095;DHT22;4583;49.796;9.902;2023-07-13T23:44:56;19.00;61.90
9095;DHT22;4583;49.796;9.902;2023-07-13T23:54:57;18.90;62.40
